Time;durP1;ratioP1;P1;durP2;ratioP2;P2;SDS_P1;SDS_P2;PMS_P1;PMS_P2;Temp;Humidity;BMP_temperature;BMP_pressure;BME280_temperature;BME280_humidity;BME280_pressure;Samples;Min_cycle;Max_cycle;Signal;HPM_P1;HPM_P2
2022/07/24 00:01:49;;;;;;;13.50;12.50;;;20.80;99.90;;;;;;5066512;28;20632;-85
2022/07/24 00:04:15;;;;;;;11.70;10.90;;;20.80;99.90;;;;;;5065231;28;20653;-85
2022/07/24 00:06:42;;;;;;;12.17;11.20;;;20.70;99.90;;;;;;5067345;28;21239;-85
2022/07/24 00:09:09;;;;;;;12.17;11.27;;;20.60;99.90;;;;;;5067993;28;20668;-85
2022/07/24 00:11:36;;;;;;;13.07;12.10;;;20.60;99.90;;;;;;5063939;28;20635;-85
2022/07/24 00:14:04;;;;;;;12.37;11.47;;;20.60;99.90;;;;;;5066334;28;20675;-85
2022/07/24 00:16:31;;;;;;;11.77;10.97;;;20.60;99.90;;;;;;5067631;28;21265;-85
2022/07/24 00:18:58;;;;;;;12.13;11.13;;;20.60;99.90;;;;;;5068189;28;20641;-85
2022/07/24 00:21:25;;;;;;;12.60;11.60;;;20.60;99.90;;;;;;5066730;28;20633;-85
2022/07/24 00:23:52;;;;;;;12.40;11.40;;;20.50;99.90;;;;;;5065856;28;20657;-85
2022/07/24 00:26:18;;;;;;;12.97;12.03;;;20.50;99.90;;;;;;5066840;28;21029;-85
2022/07/24 00:28:45;;;;;;;13.80;12.40;;;20.40;99.90;;;;;;5066465;28;20633;-85
2022/07/24 00:31:14;;;;;;;12.60;11.70;;;20.40;99.90;;;;;;5063090;28;21271;-85
2022/07/24 00:33:40;;;;;;;13.40;12.50;;;20.40;99.90;;;;;;5066701;28;21097;-85
2022/07/24 00:36:08;;;;;;;13.43;12.50;;;20.30;99.90;;;;;;5065984;28;20673;-85
2022/07/24 00:38:35;;;;;;;13.37;12.47;;;20.30;99.90;;;;;;5064225;28;20629;-85
2022/07/24 00:41:02;;;;;;;13.30;12.30;;;20.20;99.90;;;;;;5066780;28;20631;-85
2022/07/24 00:43:29;;;;;;;14.33;13.07;;;20.30;99.90;;;;;;5066356;28;20640;-85
2022/07/24 00:45:55;;;;;;;13.27;12.27;;;20.30;99.90;;;;;;5062981;28;21166;-85
2022/07/24 00:48:23;;;;;;;13.53;12.53;;;20.30;99.90;;;;;;5066962;28;20653;-85
2022/07/24 00:50:50;;;;;;;12.77;11.97;;;20.20;99.90;;;;;;5061585;28;20642;-84
2022/07/24 00:53:18;;;;;;;13.33;12.33;;;20.20;99.90;;;;;;5071020;28;20620;-84
2022/07/24 00:55:45;;;;;;;13.43;12.43;;;20.20;99.90;;;;;;5067388;28;20680;-83
2022/07/24 00:58:12;;;;;;;13.83;12.80;;;20.10;99.90;;;;;;5062223;28;21217;-83
2022/07/24 01:00:39;;;;;;;14.60;13.30;;;20.10;99.90;;;;;;5063941;28;20629;-84
2022/07/24 01:03:06;;;;;;;14.07;13.07;;;20.10;99.90;;;;;;5062326;28;21249;-83
2022/07/24 01:05:34;;;;;;;14.73;13.70;;;20.00;99.90;;;;;;5066339;28;20643;-84
2022/07/24 01:08:02;;;;;;;15.67;14.23;;;20.00;99.90;;;;;;5066547;28;20629;-83
2022/07/24 01:10:29;;;;;;;12.97;12.07;;;19.90;99.90;;;;;;5066280;28;20621;-83
2022/07/24 01:12:56;;;;;;;12.97;12.07;;;19.90;99.90;;;;;;5066489;28;20625;-84
2022/07/24 01:15:23;;;;;;;14.27;13.27;;;19.90;99.90;;;;;;5059258;28;20682;-84
2022/07/24 01:17:50;;;;;;;14.07;13.07;;;19.80;99.90;;;;;;5060449;28;20635;-84
2022/07/24 01:20:17;;;;;;;13.23;12.07;;;19.90;99.90;;;;;;5063453;28;20633;-84
2022/07/24 01:22:46;;;;;;;13.30;12.20;;;19.90;99.90;;;;;;5066484;28;20641;-84
2022/07/24 01:25:13;;;;;;;14.53;13.43;;;19.80;99.90;;;;;;5065909;28;20653;-84
2022/07/24 01:27:39;;;;;;;14.23;13.20;;;19.80;99.90;;;;;;5065322;28;20633;-83
2022/07/24 01:30:07;;;;;;;13.77;12.77;;;19.80;99.90;;;;;;5061637;28;20632;-84
2022/07/24 01:32:34;;;;;;;14.00;13.10;;;19.80;99.90;;;;;;5059985;28;20623;-83
2022/07/24 01:35:01;;;;;;;13.60;12.60;;;19.80;99.90;;;;;;5065503;28;20648;-84
2022/07/24 01:37:28;;;;;;;14.07;13.07;;;19.70;99.90;;;;;;5065367;28;20639;-84
2022/07/24 01:39:56;;;;;;;14.03;12.97;;;19.70;99.90;;;;;;5066125;28;21016;-84
2022/07/24 01:42:25;;;;;;;13.67;12.67;;;19.70;99.90;;;;;;5065531;28;20635;-84
2022/07/24 01:44:52;;;;;;;14.03;12.97;;;19.70;99.90;;;;;;5061791;28;20660;-84
2022/07/24 01:47:18;;;;;;;14.60;13.50;;;19.60;99.90;;;;;;5064264;28;20667;-84
2022/07/24 01:49:45;;;;;;;14.40;13.17;;;19.60;99.90;;;;;;5063861;28;20637;-84
2022/07/24 01:52:12;;;;;;;14.40;13.30;;;19.60;99.90;;;;;;5065699;28;20633;-84
2022/07/24 01:54:39;;;;;;;13.97;12.97;;;19.60;99.90;;;;;;5065352;28;20656;-84
2022/07/24 01:57:07;;;;;;;13.53;12.63;;;19.50;99.90;;;;;;5066079;28;20882;-84
2022/07/24 01:59:34;;;;;;;13.97;13.03;;;19.50;99.90;;;;;;5065345;28;20995;-84
2022/07/24 02:02:00;;;;;;;14.13;13.03;;;19.60;99.90;;;;;;5066070;28;20633;-84
2022/07/24 02:04:27;;;;;;;14.57;13.53;;;19.50;99.90;;;;;;5065438;28;20657;-84
2022/07/24 02:06:54;;;;;;;13.90;12.90;;;19.50;99.90;;;;;;5065371;28;20674;-84
2022/07/24 02:09:21;;;;;;;13.80;12.33;;;19.40;99.90;;;;;;5065618;28;20633;-85
2022/07/24 02:11:48;;;;;;;14.23;13.33;;;19.40;99.90;;;;;;5065403;28;20621;-84
2022/07/24 02:14:16;;;;;;;14.47;13.47;;;19.40;99.90;;;;;;5067252;28;21217;-84
2022/07/24 02:16:43;;;;;;;14.07;13.00;;;19.40;99.90;;;;;;5058907;28;20661;-84
2022/07/24 02:19:10;;;;;;;13.83;12.90;;;19.40;99.90;;;;;;5067304;28;20636;-84
2022/07/24 02:21:36;;;;;;;14.90;13.90;;;19.40;99.90;;;;;;5065997;28;20633;-84
2022/07/24 02:24:03;;;;;;;14.30;13.20;;;19.30;99.90;;;;;;5066852;28;20652;-83
2022/07/24 02:26:30;;;;;;;13.80;12.80;;;19.30;99.90;;;;;;5070026;28;20644;-83
2022/07/24 02:28:57;;;;;;;14.50;13.40;;;19.30;99.90;;;;;;5068005;28;20639;-83
2022/07/24 02:31:25;;;;;;;14.40;13.30;;;19.20;99.90;;;;;;5066394;28;20632;-84
2022/07/24 02:33:52;;;;;;;15.03;13.90;;;19.20;99.90;;;;;;5067779;28;20659;-84
2022/07/24 02:36:18;;;;;;;16.10;15.00;;;19.20;99.90;;;;;;5068773;28;20667;-83
2022/07/24 02:38:45;;;;;;;14.70;13.70;;;19.20;99.90;;;;;;5066377;28;20621;-84
2022/07/24 02:41:12;;;;;;;14.73;13.73;;;19.20;99.90;;;;;;5065365;28;20957;-84
2022/07/24 02:43:40;;;;;;;14.47;13.47;;;19.20;99.90;;;;;;5065288;28;20760;-84
2022/07/24 02:46:07;;;;;;;15.13;14.13;;;19.10;99.90;;;;;;5065085;28;20632;-84
2022/07/24 02:48:35;;;;;;;15.20;14.20;;;19.10;99.90;;;;;;5067449;28;20635;-84
2022/07/24 02:51:02;;;;;;;15.20;14.10;;;19.10;99.90;;;;;;5067681;28;20982;-84
2022/07/24 02:53:28;;;;;;;15.97;14.67;;;19.00;99.90;;;;;;5060457;28;20623;-85
2022/07/24 02:55:55;;;;;;;16.30;14.90;;;19.00;99.90;;;;;;5067984;28;20672;-85
2022/07/24 02:58:22;;;;;;;14.87;13.87;;;19.00;99.90;;;;;;5066484;28;20633;-84
2022/07/24 03:00:49;;;;;;;16.23;15.23;;;18.90;99.90;;;;;;5066863;28;21392;-84
2022/07/24 03:03:16;;;;;;;14.83;13.83;;;18.90;99.90;;;;;;5067617;28;20649;-84
2022/07/24 03:05:44;;;;;;;17.10;15.80;;;18.90;99.90;;;;;;5067225;28;20620;-84
2022/07/24 03:08:11;;;;;;;15.50;14.40;;;18.90;99.90;;;;;;5067227;28;20631;-85
2022/07/24 03:10:38;;;;;;;16.50;15.20;;;18.80;99.90;;;;;;5068036;28;21425;-84
2022/07/24 03:13:05;;;;;;;15.53;14.43;;;18.80;99.90;;;;;;5066789;28;20625;-84
2022/07/24 03:15:32;;;;;;;14.43;13.47;;;18.80;99.90;;;;;;5065065;28;20656;-84
2022/07/24 03:17:59;;;;;;;15.40;14.30;;;18.70;99.90;;;;;;5066551;28;21275;-84
2022/07/24 03:20:28;;;;;;;15.27;14.17;;;18.70;99.90;;;;;;5067563;28;20787;-84
2022/07/24 03:22:57;;;;;;;15.67;14.57;;;18.70;99.90;;;;;;5066784;28;20649;-84
2022/07/24 03:25:24;;;;;;;15.13;14.03;;;18.70;99.90;;;;;;5068052;28;20656;-84
2022/07/24 03:27:51;;;;;;;15.57;14.47;;;18.70;99.90;;;;;;5065303;28;20678;-84
2022/07/24 03:30:18;;;;;;;15.90;14.77;;;18.60;99.90;;;;;;5066795;28;20647;-84
2022/07/24 03:32:46;;;;;;;15.33;14.13;;;18.60;99.90;;;;;;5063081;28;20715;-84
2022/07/24 03:35:12;;;;;;;15.70;14.60;;;18.60;99.90;;;;;;5068387;28;20649;-84
2022/07/24 03:37:39;;;;;;;15.87;14.40;;;18.60;99.90;;;;;;5066449;28;20665;-83
2022/07/24 03:40:09;;;;;;;14.90;13.70;;;18.60;99.90;;;;;;5067159;28;20656;-84
2022/07/24 03:42:36;;;;;;;15.93;14.83;;;18.60;99.90;;;;;;5065564;28;21242;-84
2022/07/24 03:45:04;;;;;;;14.77;13.77;;;18.60;99.90;;;;;;5065949;28;20659;-83
2022/07/24 03:47:31;;;;;;;15.77;14.77;;;18.60;99.90;;;;;;5065562;28;20964;-84
2022/07/24 03:49:58;;;;;;;15.80;14.63;;;18.60;99.90;;;;;;5067322;28;21190;-83
2022/07/24 03:52:25;;;;;;;15.47;14.47;;;18.50;99.90;;;;;;5063020;28;20626;-83
2022/07/24 03:54:52;;;;;;;16.37;15.07;;;18.50;99.90;;;;;;5065579;28;20645;-84
2022/07/24 03:57:20;;;;;;;16.10;14.90;;;18.50;99.90;;;;;;5063680;28;20740;-84
2022/07/24 03:59:47;;;;;;;15.57;14.40;;;18.50;99.90;;;;;;5060896;28;20934;-84
2022/07/24 04:02:14;;;;;;;15.53;14.37;;;18.50;99.90;;;;;;5067327;28;21175;-83
2022/07/24 04:04:41;;;;;;;16.43;15.10;;;18.50;99.90;;;;;;5065530;28;20655;-84
2022/07/24 04:07:08;;;;;;;16.67;15.57;;;18.50;99.90;;;;;;5061773;28;20637;-84
2022/07/24 04:09:35;;;;;;;17.47;16.07;;;18.50;99.90;;;;;;5064641;28;20643;-84
2022/07/24 04:12:02;;;;;;;15.43;14.43;;;18.50;99.90;;;;;;5066200;28;20624;-85
2022/07/24 04:14:30;;;;;;;16.13;14.77;;;18.50;99.90;;;;;;5064924;28;20649;-83
2022/07/24 04:16:57;;;;;;;14.53;13.43;;;18.50;99.90;;;;;;5064819;28;20661;-83
2022/07/24 04:19:24;;;;;;;15.73;14.63;;;18.50;99.90;;;;;;5058820;28;20643;-85
2022/07/24 04:21:51;;;;;;;15.80;14.63;;;18.50;99.90;;;;;;5069011;28;20629;-84
2022/07/24 04:24:18;;;;;;;14.30;13.30;;;18.60;99.90;;;;;;5057702;28;20680;-84
2022/07/24 04:26:45;;;;;;;15.17;14.07;;;18.60;99.90;;;;;;5062597;28;21352;-83
2022/07/24 04:29:12;;;;;;;15.47;14.37;;;18.60;99.90;;;;;;5069796;28;20623;-83
2022/07/24 04:31:40;;;;;;;15.10;14.00;;;18.60;99.90;;;;;;5060860;28;20633;-83
2022/07/24 04:34:07;;;;;;;15.97;14.80;;;18.60;99.90;;;;;;5062556;28;20648;-83
2022/07/24 04:36:33;;;;;;;15.40;14.20;;;18.70;99.90;;;;;;5062201;28;20671;-83
2022/07/24 04:39:00;;;;;;;15.37;14.27;;;18.80;99.90;;;;;;5064796;28;20632;-83
2022/07/24 04:41:27;;;;;;;15.40;14.20;;;18.80;99.90;;;;;;5064281;28;20636;-84
2022/07/24 04:43:54;;;;;;;14.70;13.70;;;18.90;99.90;;;;;;5062788;28;20659;-83
2022/07/24 04:46:21;;;;;;;15.50;14.40;;;19.00;99.90;;;;;;5063729;28;20746;-83
2022/07/24 04:48:49;;;;;;;14.83;13.83;;;19.00;99.90;;;;;;5064874;28;20637;-83
2022/07/24 04:51:16;;;;;;;16.00;14.90;;;19.00;99.90;;;;;;5064721;28;20635;-84
2022/07/24 04:53:42;;;;;;;16.37;15.07;;;19.10;99.90;;;;;;5063963;28;21235;-83
2022/07/24 04:56:09;;;;;;;17.20;14.70;;;19.10;99.90;;;;;;5066030;28;20637;-83
2022/07/24 04:58:36;;;;;;;15.57;14.47;;;19.10;99.90;;;;;;5065291;28;20632;-83
2022/07/24 05:01:03;;;;;;;15.63;14.63;;;19.20;99.90;;;;;;5065141;28;20631;-83
2022/07/24 05:03:30;;;;;;;16.27;15.07;;;19.20;99.90;;;;;;5065282;28;21235;-84
2022/07/24 05:05:58;;;;;;;16.33;14.73;;;19.30;99.90;;;;;;5066493;28;20624;-83
2022/07/24 05:08:25;;;;;;;15.70;14.40;;;19.30;99.90;;;;;;5065307;28;21204;-83
2022/07/24 05:10:51;;;;;;;15.47;14.23;;;19.40;99.90;;;;;;5065525;28;20644;-83
2022/07/24 05:13:18;;;;;;;16.90;15.67;;;19.40;99.90;;;;;;5066544;28;21287;-83
2022/07/24 05:15:45;;;;;;;16.40;15.17;;;19.50;99.90;;;;;;5065101;28;21009;-84
2022/07/24 05:18:12;;;;;;;16.87;15.57;;;19.50;99.90;;;;;;5064336;28;20734;-83
2022/07/24 05:20:38;;;;;;;15.83;14.43;;;19.60;99.90;;;;;;5066219;28;20627;-83
2022/07/24 05:23:07;;;;;;;14.17;13.27;;;19.60;99.90;;;;;;5066081;28;20621;-83
2022/07/24 05:25:33;;;;;;;15.90;14.73;;;19.70;99.90;;;;;;5066063;28;20660;-83
2022/07/24 05:28:00;;;;;;;14.53;13.53;;;19.80;99.90;;;;;;5065182;28;20630;-84
2022/07/24 05:30:27;;;;;;;15.80;14.60;;;19.80;99.90;;;;;;5065684;28;20640;-84
2022/07/24 05:32:54;;;;;;;14.73;13.73;;;19.90;99.90;;;;;;5060526;28;20613;-83
2022/07/24 05:35:21;;;;;;;15.60;14.40;;;20.00;99.90;;;;;;5065363;28;20664;-84
2022/07/24 05:37:47;;;;;;;15.33;14.17;;;20.10;99.90;;;;;;5064661;28;20764;-84
2022/07/24 05:40:16;;;;;;;14.97;13.97;;;20.10;99.90;;;;;;5065985;28;20652;-83
2022/07/24 05:42:43;;;;;;;15.23;14.20;;;20.10;99.90;;;;;;5064915;28;20675;-83
2022/07/24 05:45:10;;;;;;;14.23;13.23;;;20.20;99.90;;;;;;5067162;28;20764;-83
2022/07/24 05:47:38;;;;;;;12.37;11.27;;;20.20;99.90;;;;;;5068335;28;20624;-83
2022/07/24 05:50:07;;;;;;;12.53;11.33;;;20.30;99.90;;;;;;5068493;28;20628;-84
2022/07/24 05:52:34;;;;;;;13.03;11.83;;;20.40;99.90;;;;;;5067268;28;21190;-83
2022/07/24 05:55:01;;;;;;;14.17;12.70;;;20.40;99.90;;;;;;5068278;28;20738;-84
2022/07/24 05:57:29;;;;;;;11.63;10.73;;;20.50;99.90;;;;;;5067507;28;20665;-84
2022/07/24 05:59:56;;;;;;;13.50;12.40;;;20.70;99.90;;;;;;5069573;28;20641;-83
2022/07/24 06:02:23;;;;;;;13.00;11.90;;;20.70;99.90;;;;;;5068311;28;20632;-83
2022/07/24 06:04:49;;;;;;;12.47;11.40;;;20.90;99.90;;;;;;5069478;28;20649;-83
2022/07/24 06:07:16;;;;;;;11.50;10.47;;;20.90;99.90;;;;;;5069525;28;20617;-83
2022/07/24 06:09:43;;;;;;;12.20;11.20;;;20.90;99.90;;;;;;5068986;28;20631;-84
2022/07/24 06:12:10;;;;;;;13.23;12.10;;;21.00;99.90;;;;;;5069249;28;20631;-83
2022/07/24 06:14:38;;;;;;;12.20;11.10;;;21.10;99.90;;;;;;5069069;28;20649;-83
2022/07/24 06:17:05;;;;;;;13.37;12.07;;;21.20;99.90;;;;;;5067791;28;20671;-83
2022/07/24 06:19:32;;;;;;;13.43;12.37;;;21.20;99.90;;;;;;5068150;28;20632;-84
2022/07/24 06:21:59;;;;;;;13.57;12.37;;;21.30;99.90;;;;;;5059341;28;21796;-84
2022/07/24 06:24:26;;;;;;;13.20;11.90;;;21.30;99.90;;;;;;5054560;28;20668;-84
2022/07/24 06:26:53;;;;;;;11.20;10.30;;;21.40;99.90;;;;;;5074485;28;21195;-84
2022/07/24 06:29:19;;;;;;;11.83;10.87;;;21.40;99.90;;;;;;5068891;28;20719;-84
2022/07/24 06:31:47;;;;;;;13.33;12.40;;;21.60;99.90;;;;;;5070152;28;20639;-84
2022/07/24 06:34:14;;;;;;;11.80;10.80;;;21.70;99.90;;;;;;5069713;28;20656;-83
2022/07/24 06:36:41;;;;;;;12.90;11.73;;;21.70;99.90;;;;;;5070067;28;20632;-84
2022/07/24 06:39:08;;;;;;;12.53;11.20;;;21.90;99.90;;;;;;5069783;28;21163;-84
2022/07/24 06:41:35;;;;;;;13.80;12.50;;;21.90;99.90;;;;;;5068714;28;20663;-84
2022/07/24 06:44:02;;;;;;;13.20;12.20;;;21.90;99.90;;;;;;5068860;28;20661;-84
2022/07/24 06:46:28;;;;;;;12.13;10.93;;;22.10;99.90;;;;;;5069472;28;21044;-84
2022/07/24 06:48:56;;;;;;;13.20;11.90;;;22.10;99.90;;;;;;5067510;28;21015;-84
2022/07/24 06:51:23;;;;;;;13.10;12.07;;;22.20;99.90;;;;;;5068520;28;20999;-84
2022/07/24 06:53:50;;;;;;;11.23;10.20;;;22.30;99.90;;;;;;5068034;28;21205;-84
2022/07/24 06:56:17;;;;;;;11.60;10.60;;;22.40;99.90;;;;;;5067853;28;20641;-84
2022/07/24 06:58:44;;;;;;;11.93;11.03;;;22.50;99.90;;;;;;5066862;28;20667;-84
2022/07/24 07:01:11;;;;;;;13.73;11.57;;;22.60;99.90;;;;;;5067661;28;20625;-85
2022/07/24 07:03:38;;;;;;;11.50;10.50;;;22.70;99.90;;;;;;5068099;28;20656;-84
2022/07/24 07:06:06;;;;;;;11.60;10.70;;;22.80;99.90;;;;;;5067530;28;20605;-85
2022/07/24 07:08:33;;;;;;;12.90;11.97;;;22.90;99.90;;;;;;5061134;28;21083;-85
2022/07/24 07:11:00;;;;;;;10.50;9.60;;;23.00;99.90;;;;;;5067298;28;20655;-84
2022/07/24 07:13:27;;;;;;;10.63;9.83;;;23.20;99.90;;;;;;5066219;28;20631;-84
2022/07/24 07:15:54;;;;;;;14.67;10.37;;;23.30;99.90;;;;;;5067091;28;20744;-84
2022/07/24 07:18:20;;;;;;;12.37;11.47;;;23.40;99.90;;;;;;5063570;28;20681;-85
2022/07/24 07:20:53;;;;;;;10.90;9.97;;;23.40;99.90;;;;;;5068305;28;20629;-84
2022/07/24 07:23:21;;;;;;;10.80;9.70;;;23.40;99.90;;;;;;5068337;28;20662;-84
2022/07/24 07:25:48;;;;;;;11.10;10.30;;;23.60;99.90;;;;;;5065879;28;20625;-85
2022/07/24 07:28:15;;;;;;;10.10;9.40;;;23.70;99.90;;;;;;5065768;28;20629;-83
2022/07/24 07:30:42;;;;;;;9.73;9.03;;;23.80;99.90;;;;;;5067865;28;20752;-84
2022/07/24 07:33:09;;;;;;;11.30;10.50;;;24.00;99.90;;;;;;5063355;28;20639;-84
2022/07/24 07:35:36;;;;;;;10.87;10.10;;;23.90;99.90;;;;;;5068686;28;20660;-81
2022/07/24 07:38:03;;;;;;;10.37;9.60;;;24.00;99.90;;;;;;5068275;28;20671;-84
2022/07/24 07:40:31;;;;;;;9.97;9.13;;;24.10;99.90;;;;;;5063957;28;20636;-85
2022/07/24 07:42:58;;;;;;;10.60;9.87;;;24.10;99.90;;;;;;5066092;28;20629;-85
2022/07/24 07:45:25;;;;;;;10.47;9.67;;;24.30;99.90;;;;;;5067867;28;21025;-83
2022/07/24 07:47:51;;;;;;;9.60;8.90;;;24.40;99.90;;;;;;5067411;28;20669;-83
2022/07/24 07:50:18;;;;;;;10.30;9.60;;;24.50;99.90;;;;;;5068614;28;20633;-84
2022/07/24 07:52:45;;;;;;;9.53;8.63;;;24.60;99.90;;;;;;5067615;28;20705;-84
2022/07/24 07:55:12;;;;;;;9.37;8.70;;;24.60;99.90;;;;;;5063814;28;21219;-83
2022/07/24 07:57:41;;;;;;;9.40;8.63;;;24.80;99.90;;;;;;5066480;28;20673;-84
2022/07/24 08:00:09;;;;;;;8.60;7.90;;;24.90;99.90;;;;;;5063648;28;20966;-83
2022/07/24 08:02:36;;;;;;;8.63;7.97;;;25.10;99.90;;;;;;5066097;28;20635;-84
2022/07/24 08:05:03;;;;;;;9.00;8.40;;;25.20;99.90;;;;;;5064281;28;21328;-82
2022/07/24 08:07:30;;;;;;;8.07;7.53;;;25.30;99.90;;;;;;5065218;28;20668;-82
2022/07/24 08:09:57;;;;;;;7.97;7.27;;;25.50;99.90;;;;;;5066780;28;21042;-84
2022/07/24 08:12:23;;;;;;;7.87;7.20;;;25.70;99.90;;;;;;5063383;28;20646;-82
2022/07/24 08:14:51;;;;;;;7.67;7.10;;;25.80;99.90;;;;;;5066307;28;20714;-82
2022/07/24 08:17:18;;;;;;;9.33;8.53;;;25.90;99.90;;;;;;5066985;28;20711;-84
2022/07/24 08:19:46;;;;;;;8.67;7.87;;;26.00;99.90;;;;;;5066300;28;20654;-84
2022/07/24 08:22:13;;;;;;;8.90;8.10;;;26.10;99.90;;;;;;5066649;28;20686;-84
2022/07/24 08:24:40;;;;;;;7.57;7.13;;;26.10;99.90;;;;;;5065135;28;20746;-83
2022/07/24 08:27:07;;;;;;;7.80;7.27;;;26.30;99.90;;;;;;5056445;28;20654;-83
2022/07/24 08:29:34;;;;;;;8.57;7.87;;;26.40;99.90;;;;;;5065760;28;21007;-82
2022/07/24 08:32:02;;;;;;;8.20;7.60;;;26.50;99.30;;;;;;5066522;28;20629;-83
2022/07/24 08:34:32;;;;;;;7.90;7.30;;;26.50;98.60;;;;;;5066436;28;20665;-82
2022/07/24 08:36:59;;;;;;;7.30;6.80;;;26.60;97.30;;;;;;5066413;28;21021;-82
2022/07/24 08:39:26;;;;;;;7.37;6.87;;;26.60;96.30;;;;;;5062151;28;20665;-84
2022/07/24 08:41:56;;;;;;;7.87;7.37;;;26.60;94.80;;;;;;5065143;28;20628;-83
2022/07/24 08:44:23;;;;;;;8.07;7.50;;;26.70;95.50;;;;;;5069881;28;21031;-84
2022/07/24 08:46:50;;;;;;;7.50;7.00;;;26.80;97.10;;;;;;5070583;28;20975;-84
2022/07/24 08:49:22;;;;;;;8.47;7.83;;;26.80;94.60;;;;;;5065537;28;20621;-83
2022/07/24 08:51:50;;;;;;;7.43;6.93;;;26.90;95.80;;;;;;5065472;28;20619;-85
2022/07/24 08:54:17;;;;;;;8.33;7.73;;;26.80;92.70;;;;;;5064559;28;20756;-84
2022/07/24 08:56:44;;;;;;;8.30;7.70;;;26.90;95.10;;;;;;5065424;28;20633;-85
2022/07/24 08:59:18;;;;;;;8.13;7.63;;;27.10;95.20;;;;;;5066848;28;20657;-84
2022/07/24 09:01:45;;;;;;;8.53;8.03;;;27.20;95.80;;;;;;5066906;28;21262;-84
2022/07/24 09:04:35;;;;;;;7.90;7.40;;;27.30;95.60;;;;;;5065831;28;20653;-83
2022/07/24 09:07:04;;;;;;;8.20;7.50;;;27.50;93.80;;;;;;5071584;28;20629;-83
2022/07/24 09:09:31;;;;;;;11.87;7.27;;;27.50;92.70;;;;;;5077923;28;20693;-83
2022/07/24 09:12:09;;;;;;;8.90;8.20;;;27.50;91.90;;;;;;5067041;28;21458;-83
2022/07/24 09:14:38;;;;;;;8.03;7.40;;;27.60;91.90;;;;;;5063194;28;20854;-83
2022/07/24 09:17:07;;;;;;;13.37;7.27;;;27.60;93.00;;;;;;5066755;28;20989;-83
2022/07/24 09:19:49;;;;;;;7.63;7.03;;;27.80;93.50;;;;;;5065613;28;20671;-83
2022/07/24 09:22:34;;;;;;;7.57;7.07;;;27.90;90.90;;;;;;5064845;28;20624;-83
2022/07/24 09:25:07;;;;;;;8.43;7.80;;;28.00;90.80;;;;;;5065918;28;20652;-83
2022/07/24 09:27:35;;;;;;;7.50;7.00;;;28.00;90.00;;;;;;5063104;28;20639;-83
2022/07/24 09:30:02;;;;;;;7.87;7.27;;;28.00;90.20;;;;;;5066060;28;20649;-83
2022/07/24 09:32:29;;;;;;;8.50;7.83;;;28.10;91.00;;;;;;5079897;28;20724;-83
2022/07/24 09:34:57;;;;;;;7.83;7.33;;;28.30;88.90;;;;;;5064561;28;20657;-83
2022/07/24 09:37:27;;;;;;;8.43;7.80;;;28.30;85.10;;;;;;5063404;28;20633;-83
2022/07/24 09:40:07;;;;;;;8.00;7.40;;;28.30;85.30;;;;;;5063263;28;21107;-83
2022/07/24 09:42:38;;;;;;;7.10;6.60;;;28.50;86.60;;;;;;5066124;28;20694;-83
2022/07/24 09:45:08;;;;;;;7.63;7.13;;;28.70;85.50;;;;;;5065437;28;20653;-83
2022/07/24 09:47:36;;;;;;;8.23;7.63;;;28.70;83.30;;;;;;5063190;28;20613;-83
2022/07/24 09:50:19;;;;;;;7.40;6.90;;;28.90;82.70;;;;;;5065544;28;21402;-83
2022/07/24 09:52:46;;;;;;;7.50;6.90;;;29.00;79.20;;;;;;5063268;28;20636;-83
2022/07/24 09:55:25;;;;;;;8.30;7.70;;;29.10;80.80;;;;;;5065411;28;20664;-83
2022/07/24 09:57:55;;;;;;;8.77;8.27;;;29.20;76.60;;;;;;5063882;28;20661;-83
2022/07/24 10:00:23;;;;;;;8.20;7.60;;;29.20;73.80;;;;;;5066365;28;20636;-82
2022/07/24 10:02:52;;;;;;;7.67;7.17;;;29.20;74.30;;;;;;5066220;28;20661;-83
2022/07/24 10:05:24;;;;;;;8.60;7.93;;;29.30;75.60;;;;;;5065408;28;20675;-83
2022/07/24 10:07:57;;;;;;;8.83;8.20;;;29.40;74.30;;;;;;5062787;28;20960;-83
2022/07/24 10:10:28;;;;;;;7.90;7.20;;;29.40;72.60;;;;;;5066302;28;20644;-83
2022/07/24 10:12:55;;;;;;;9.60;8.90;;;29.40;70.90;;;;;;5065485;28;20679;-83
2022/07/24 10:15:22;;;;;;;7.40;6.90;;;29.50;70.80;;;;;;5066639;28;20660;-83
2022/07/24 10:18:16;;;;;;;7.50;7.00;;;29.70;70.00;;;;;;5064901;28;21163;-84
2022/07/24 10:20:46;;;;;;;7.90;7.20;;;29.40;69.50;;;;;;5064825;28;20645;-84
2022/07/24 10:23:24;;;;;;;8.40;7.23;;;29.40;70.20;;;;;;5064720;28;20841;-84
2022/07/24 10:25:55;;;;;;;8.03;7.47;;;29.50;70.10;;;;;;5066024;28;20733;-84
2022/07/24 10:28:37;;;;;;;8.47;7.97;;;29.60;70.70;;;;;;5064766;28;21159;-85
2022/07/24 10:31:06;;;;;;;8.67;7.87;;;29.70;68.60;;;;;;5064287;28;20637;-84
2022/07/24 10:33:34;;;;;;;8.23;7.77;;;29.70;69.20;;;;;;5066430;28;20628;-84
2022/07/24 10:36:08;;;;;;;8.40;7.70;;;29.80;68.90;;;;;;5069298;28;20636;-84
2022/07/24 10:38:40;;;;;;;8.40;7.80;;;29.80;70.50;;;;;;5070088;28;20654;-84
2022/07/24 10:41:15;;;;;;;9.03;8.53;;;30.00;68.20;;;;;;5067775;28;20612;-84
2022/07/24 10:44:19;;;;;;;9.20;8.50;;;30.10;68.00;;;;;;5068659;28;20771;-84
2022/07/24 10:47:07;;;;;;;9.07;8.30;;;30.40;66.90;;;;;;5069552;28;20632;-84
2022/07/24 10:49:42;;;;;;;8.47;7.87;;;30.50;65.70;;;;;;5069061;28;20671;-84
2022/07/24 10:52:22;;;;;;;7.80;7.33;;;30.60;66.30;;;;;;5066581;28;20624;-82
2022/07/24 10:54:50;;;;;;;9.10;8.60;;;30.70;64.60;;;;;;5069202;28;20652;-84
2022/07/24 10:57:16;;;;;;;7.67;7.17;;;30.90;65.70;;;;;;5068297;28;20625;-83
2022/07/24 10:59:43;;;;;;;8.73;8.23;;;31.20;64.80;;;;;;5068415;28;20699;-84
2022/07/24 11:02:32;;;;;;;10.07;9.40;;;31.40;63.20;;;;;;5069122;28;20644;-84
2022/07/24 11:05:25;;;;;;;9.20;8.60;;;31.60;62.70;;;;;;5067169;28;20680;-84
2022/07/24 11:08:33;;;;;;;8.80;8.00;;;31.80;62.30;;;;;;5069130;28;20635;-84
2022/07/24 11:11:08;;;;;;;8.60;8.00;;;32.20;62.30;;;;;;5069167;28;21159;-84
2022/07/24 11:13:51;;;;;;;8.87;8.37;;;32.70;61.70;;;;;;5068306;28;20999;-83
2022/07/24 11:16:23;;;;;;;8.63;8.03;;;32.70;58.00;;;;;;5065528;28;20686;-84
2022/07/24 11:19:32;;;;;;;8.97;8.37;;;32.80;57.90;;;;;;5065432;28;20657;-84
2022/07/24 11:22:05;;;;;;;8.50;8.00;;;33.00;56.20;;;;;;5069105;28;20719;-84
2022/07/24 11:24:32;;;;;;;7.47;6.97;;;33.10;56.30;;;;;;5065884;28;20678;-84
2022/07/24 11:27:05;;;;;;;8.37;7.77;;;33.10;55.10;;;;;;5069123;28;20628;-84
2022/07/24 11:29:34;;;;;;;8.43;7.93;;;32.80;55.50;;;;;;5068469;28;21057;-84
2022/07/24 11:32:04;;;;;;;7.67;6.83;;;32.60;54.90;;;;;;5068116;28;20810;-84
2022/07/24 11:34:32;;;;;;;7.53;7.13;;;32.40;55.10;;;;;;5067656;28;20656;-84
2022/07/24 11:37:00;;;;;;;7.90;7.30;;;32.40;54.80;;;;;;5069272;28;20624;-85
2022/07/24 11:39:29;;;;;;;7.47;6.97;;;32.60;55.20;;;;;;5065591;28;20664;-83
2022/07/24 11:41:57;;;;;;;6.90;6.50;;;32.80;53.70;;;;;;5069314;28;20632;-84
2022/07/24 11:44:28;;;;;;;7.37;6.97;;;33.10;53.30;;;;;;5067918;28;20660;-85
2022/07/24 11:46:57;;;;;;;8.17;7.57;;;33.40;53.10;;;;;;5069264;28;20691;-83
2022/07/24 11:49:25;;;;;;;7.93;7.43;;;33.70;52.50;;;;;;5067220;28;20663;-83
2022/07/24 11:51:54;;;;;;;7.47;7.07;;;33.90;52.00;;;;;;5066064;28;20629;-84
2022/07/24 11:54:23;;;;;;;8.73;7.83;;;34.10;52.90;;;;;;5066188;28;20658;-84
2022/07/24 11:56:50;;;;;;;8.50;8.00;;;34.00;53.10;;;;;;5067464;28;20637;-85
2022/07/24 11:59:26;;;;;;;8.50;8.00;;;34.10;53.10;;;;;;5068271;28;20755;-84
2022/07/24 12:01:57;;;;;;;9.00;8.37;;;34.30;52.10;;;;;;5068129;28;20631;-84
2022/07/24 12:04:24;;;;;;;8.63;8.13;;;34.40;52.10;;;;;;5066810;28;20767;-84
2022/07/24 12:06:51;;;;;;;9.30;8.70;;;34.50;52.00;;;;;;5064563;28;21004;-84
2022/07/24 12:09:18;;;;;;;8.07;7.37;;;34.50;51.20;;;;;;5066434;28;20620;-85
2022/07/24 12:11:45;;;;;;;7.90;7.40;;;34.80;51.20;;;;;;5066272;28;20639;-82
2022/07/24 12:14:21;;;;;;;8.60;8.10;;;35.20;50.90;;;;;;5065799;28;20705;-85
2022/07/24 12:16:55;;;;;;;8.13;7.53;;;35.40;49.60;;;;;;5067423;28;21182;-83
2022/07/24 12:19:23;;;;;;;7.53;6.93;;;35.60;50.10;;;;;;5064963;28;21019;-84
2022/07/24 12:21:52;;;;;;;6.90;6.50;;;35.90;50.20;;;;;;5067285;28;20633;-84
2022/07/24 12:24:20;;;;;;;7.40;6.77;;;36.30;48.60;;;;;;5067301;28;20218;-84
2022/07/24 12:26:52;;;;;;;7.37;6.97;;;36.40;46.60;;;;;;5068181;28;20206;-84
2022/07/24 12:29:19;;;;;;;7.73;7.13;;;36.20;45.90;;;;;;5067305;28;20199;-84
2022/07/24 12:31:47;;;;;;;6.80;6.30;;;36.00;45.80;;;;;;5068934;28;20715;-84
2022/07/24 12:34:15;;;;;;;7.03;6.53;;;35.90;46.60;;;;;;5068457;28;20248;-84
2022/07/24 12:36:43;;;;;;;6.90;6.37;;;35.90;46.20;;;;;;5068648;28;20213;-84
2022/07/24 12:39:12;;;;;;;7.37;6.77;;;35.90;45.40;;;;;;5065372;28;20664;-84
2022/07/24 12:41:44;;;;;;;6.93;6.53;;;36.20;45.80;;;;;;5065666;28;20632;-84
2022/07/24 12:44:11;;;;;;;7.10;6.60;;;36.50;45.10;;;;;;5064160;28;20232;-84